Time;durP1;ratioP1;P1;durP2;ratioP2;P2;SDS_P1;SDS_P2;PMS_P1;PMS_P2;Temp;Humidity;BMP_temperature;BMP_pressure;BME280_temperature;BME280_humidity;BME280_pressure;Samples;Min_cycle;Max_cycle;Signal;HPM_P1;HPM_P2
2022/03/15 00:01:33;;;;;;;9.20;3.65;;;;;;;;;;5102406;28;20092;-83
2022/03/15 00:04:01;;;;;;;8.25;2.80;;;;;;;;;;5094268;28;20059;-83
2022/03/15 00:06:30;;;;;;;7.50;2.65;;;;;;;;;;5098620;28;20134;-83
2022/03/15 00:09:00;;;;;;;7.72;2.92;;;;;;;;;;5102585;28;20063;-83
2022/03/15 00:11:28;;;;;;;7.20;2.67;;;;;;;;;;5091660;28;20052;-83
2022/03/15 00:13:58;;;;;;;3.25;2.22;;;;;;;;;;5096144;28;20147;-83
2022/03/15 00:16:26;;;;;;;4.22;2.72;;;;;;;;;;5101175;28;20122;-83
2022/03/15 00:18:55;;;;;;;6.82;3.20;;;;;;;;;;5100570;27;20052;-83
2022/03/15 00:21:25;;;;;;;9.30;3.13;;;;;;;;;;5100294;27;20130;-83
2022/03/15 00:23:53;;;;;;;5.00;2.70;;;;;;;;;;5105994;28;20051;-83
2022/03/15 00:26:23;;;;;;;7.00;3.08;;;;;;;;;;5090076;28;20127;-84
2022/03/15 00:28:51;;;;;;;6.07;2.85;;;;;;;;;;5092832;28;20131;-83
2022/03/15 00:31:19;;;;;;;7.00;2.83;;;;;;;;;;5092425;28;20071;-83
2022/03/15 00:33:48;;;;;;;6.47;3.00;;;;;;;;;;5093271;28;20083;-83
2022/03/15 00:36:16;;;;;;;5.45;3.03;;;;;;;;;;5101150;28;20483;-83
2022/03/15 00:38:45;;;;;;;6.55;2.67;;;;;;;;;;5096146;28;20050;-83
2022/03/15 00:41:13;;;;;;;9.82;3.65;;;;;;;;;;5107785;28;20131;-83
2022/03/15 00:43:43;;;;;;;7.15;3.00;;;;;;;;;;5109512;28;20046;-84
2022/03/15 00:46:12;;;;;;;6.93;3.15;;;;;;;;;;5083426;28;20058;-83
2022/03/15 00:48:40;;;;;;;4.65;2.45;;;;;;;;;;5083027;28;20071;-83
2022/03/15 00:51:08;;;;;;;9.63;2.53;;;;;;;;;;5097875;28;20113;-84
2022/03/15 00:53:37;;;;;;;6.28;2.78;;;;;;;;;;5094879;28;20485;-84
2022/03/15 00:56:08;;;;;;;7.88;2.90;;;;;;;;;;5100302;28;20039;-83
2022/03/15 00:58:36;;;;;;;4.03;2.38;;;;;;;;;;5092873;28;20079;-83
2022/03/15 01:01:09;;;;;;;4.15;2.60;;;;;;;;;;5108768;28;20106;-84
2022/03/15 01:03:38;;;;;;;5.95;3.05;;;;;;;;;;5103626;27;20076;-83
2022/03/15 01:06:06;;;;;;;4.20;2.70;;;;;;;;;;5100223;28;20478;-83
2022/03/15 01:08:35;;;;;;;7.47;3.00;;;;;;;;;;5107212;28;20075;-83
2022/03/15 01:11:06;;;;;;;7.63;2.88;;;;;;;;;;5098196;28;20483;-84
2022/03/15 01:13:34;;;;;;;9.80;2.20;;;;;;;;;;5113161;28;20102;-83
2022/03/15 01:16:06;;;;;;;5.63;2.40;;;;;;;;;;5098082;28;20131;-83
2022/03/15 01:18:36;;;;;;;7.55;2.35;;;;;;;;;;5104941;28;20047;-83
2022/03/15 01:21:07;;;;;;;5.15;2.53;;;;;;;;;;5098564;28;20083;-84
2022/03/15 01:23:36;;;;;;;4.63;2.42;;;;;;;;;;5109524;28;20044;-83
2022/03/15 01:26:07;;;;;;;5.63;2.80;;;;;;;;;;5104138;28;20079;-83
2022/03/15 01:28:35;;;;;;;5.95;2.58;;;;;;;;;;5101885;28;20556;-84
2022/03/15 01:31:05;;;;;;;7.15;2.70;;;;;;;;;;5100477;28;20075;-83
2022/03/15 01:33:35;;;;;;;7.07;2.85;;;;;;;;;;5095993;28;20040;-83
2022/03/15 01:36:07;;;;;;;6.65;2.60;;;;;;;;;;5099870;28;20171;-83
2022/03/15 01:38:35;;;;;;;4.85;2.60;;;;;;;;;;5096005;28;20071;-83
2022/03/15 01:41:06;;;;;;;5.75;3.42;;;;;;;;;;5101335;28;20048;-83
2022/03/15 01:43:35;;;;;;;5.93;2.97;;;;;;;;;;5109774;28;20071;-84
2022/03/15 01:46:06;;;;;;;5.78;3.15;;;;;;;;;;5094820;28;20075;-83
2022/03/15 01:48:36;;;;;;;4.90;2.92;;;;;;;;;;5113850;28;20044;-83
2022/03/15 01:51:09;;;;;;;7.15;3.20;;;;;;;;;;5097328;28;20135;-83
2022/03/15 01:53:38;;;;;;;5.75;2.88;;;;;;;;;;5094539;28;20086;-84
2022/03/15 01:56:06;;;;;;;8.68;3.10;;;;;;;;;;5095374;28;20130;-83
2022/03/15 01:58:35;;;;;;;9.75;2.97;;;;;;;;;;5078680;28;22402;-83
2022/03/15 02:01:06;;;;;;;9.23;3.47;;;;;;;;;;5097815;28;20130;-83
2022/03/15 02:03:36;;;;;;;8.05;3.33;;;;;;;;;;5100538;28;20047;-83
2022/03/15 02:06:09;;;;;;;7.13;2.28;;;;;;;;;;5095043;28;20054;-83
2022/03/15 02:08:37;;;;;;;7.20;2.53;;;;;;;;;;5094386;28;20121;-83
2022/03/15 02:11:08;;;;;;;4.50;2.60;;;;;;;;;;5106735;28;20399;-85
2022/03/15 02:13:40;;;;;;;4.18;2.40;;;;;;;;;;5105446;28;20036;-83
2022/03/15 02:16:08;;;;;;;8.50;2.78;;;;;;;;;;5094119;27;20514;-83
2022/03/15 02:18:38;;;;;;;7.05;2.80;;;;;;;;;;5094466;28;20048;-83
2022/03/15 02:21:08;;;;;;;5.97;2.92;;;;;;;;;;5103009;28;20464;-83
2022/03/15 02:23:37;;;;;;;9.25;2.83;;;;;;;;;;5100653;28;20052;-83
2022/03/15 02:26:05;;;;;;;3.55;2.58;;;;;;;;;;5102550;28;20103;-83
2022/03/15 02:28:34;;;;;;;4.72;2.25;;;;;;;;;;5098090;28;20494;-83
2022/03/15 02:31:04;;;;;;;5.95;3.10;;;;;;;;;;5094737;28;20044;-83
2022/03/15 02:33:36;;;;;;;5.47;2.43;;;;;;;;;;5099026;28;20043;-83
2022/03/15 02:36:09;;;;;;;6.95;2.78;;;;;;;;;;5094296;28;20388;-83
2022/03/15 02:38:37;;;;;;;7.68;2.83;;;;;;;;;;5096601;28;20119;-83
2022/03/15 02:41:06;;;;;;;6.05;3.28;;;;;;;;;;5100652;28;20064;-83
2022/03/15 02:43:34;;;;;;;6.25;3.05;;;;;;;;;;5093444;28;20128;-83
2022/03/15 02:46:04;;;;;;;6.90;3.17;;;;;;;;;;5095106;28;20528;-83
2022/03/15 02:48:33;;;;;;;11.23;3.58;;;;;;;;;;5103247;28;20048;-83
2022/03/15 02:51:04;;;;;;;7.03;3.58;;;;;;;;;;5096263;28;20048;-83
2022/03/15 02:53:34;;;;;;;6.88;3.28;;;;;;;;;;5096030;28;20458;-83
2022/03/15 02:56:10;;;;;;;6.97;3.40;;;;;;;;;;5076533;28;20071;-83
2022/03/15 02:58:41;;;;;;;10.23;3.67;;;;;;;;;;5098540;28;20080;-83
2022/03/15 03:01:09;;;;;;;7.78;3.38;;;;;;;;;;5102252;28;20050;-83
2022/03/15 03:03:38;;;;;;;8.40;3.15;;;;;;;;;;5096276;28;20480;-83
2022/03/15 03:06:07;;;;;;;5.05;3.05;;;;;;;;;;5104401;28;20043;-83
2022/03/15 03:08:36;;;;;;;7.30;3.13;;;;;;;;;;5099774;28;20063;-83
2022/03/15 03:11:08;;;;;;;8.02;3.47;;;;;;;;;;5098313;28;20441;-84
2022/03/15 03:13:37;;;;;;;5.32;2.97;;;;;;;;;;5108794;28;20043;-84
2022/03/15 03:16:06;;;;;;;5.60;3.03;;;;;;;;;;5100915;28;20039;-83
2022/03/15 03:18:35;;;;;;;7.78;3.42;;;;;;;;;;5081155;28;20036;-83
2022/03/15 03:21:07;;;;;;;7.18;3.28;;;;;;;;;;5104894;28;20075;-83
2022/03/15 03:23:38;;;;;;;8.63;3.50;;;;;;;;;;5103140;28;20128;-83
2022/03/15 03:26:06;;;;;;;8.77;3.40;;;;;;;;;;5096114;28;20086;-83
2022/03/15 03:28:36;;;;;;;5.38;3.25;;;;;;;;;;5104925;28;20127;-83
2022/03/15 03:31:08;;;;;;;5.65;3.45;;;;;;;;;;5101676;28;20048;-83
2022/03/15 03:33:37;;;;;;;7.32;3.75;;;;;;;;;;5102919;28;20402;-83
2022/03/15 03:36:06;;;;;;;6.65;3.30;;;;;;;;;;5098297;28;20060;-83
2022/03/15 03:38:34;;;;;;;7.15;3.13;;;;;;;;;;5096995;28;20134;-83
2022/03/15 03:41:07;;;;;;;11.25;4.63;;;;;;;;;;5095070;28;20040;-83
2022/03/15 03:43:35;;;;;;;9.52;4.47;;;;;;;;;;5092648;28;20097;-83
2022/03/15 03:46:07;;;;;;;10.23;3.95;;;;;;;;;;5096998;28;20162;-83
2022/03/15 03:48:35;;;;;;;9.95;4.13;;;;;;;;;;5108323;28;20048;-83
2022/03/15 03:51:08;;;;;;;7.95;3.47;;;;;;;;;;5096851;28;20048;-83
2022/03/15 03:53:36;;;;;;;9.75;4.07;;;;;;;;;;5097766;28;20458;-83
2022/03/15 03:56:09;;;;;;;9.20;4.20;;;;;;;;;;5092796;28;20470;-83
2022/03/15 03:58:37;;;;;;;11.10;4.60;;;;;;;;;;5094368;28;20081;-83
2022/03/15 04:01:06;;;;;;;8.45;3.90;;;;;;;;;;5093051;28;20455;-83
2022/03/15 04:03:37;;;;;;;7.60;3.90;;;;;;;;;;5098555;28;20131;-83
2022/03/15 04:06:09;;;;;;;7.75;4.00;;;;;;;;;;5092661;28;20086;-83
2022/03/15 04:08:37;;;;;;;6.95;3.50;;;;;;;;;;5094215;28;20048;-83
2022/03/15 04:11:06;;;;;;;8.95;4.82;;;;;;;;;;5100184;28;20880;-83
2022/03/15 04:13:40;;;;;;;8.30;4.15;;;;;;;;;;5100508;28;20086;-83
2022/03/15 04:16:09;;;;;;;6.95;3.80;;;;;;;;;;5097499;28;20101;-83
2022/03/15 04:18:37;;;;;;;11.23;3.78;;;;;;;;;;5104689;28;20101;-83
2022/03/15 04:21:05;;;;;;;10.38;3.58;;;;;;;;;;5106025;28;20084;-82
2022/03/15 04:23:34;;;;;;;7.93;3.90;;;;;;;;;;5091245;28;20074;-83
2022/03/15 04:26:05;;;;;;;14.30;4.72;;;;;;;;;;5090635;28;20163;-83
2022/03/15 04:28:33;;;;;;;6.50;3.60;;;;;;;;;;5094109;27;20039;-83
2022/03/15 04:31:05;;;;;;;13.98;4.60;;;;;;;;;;5098228;28;20040;-83
2022/03/15 04:33:34;;;;;;;10.00;4.32;;;;;;;;;;5103364;28;20085;-83
2022/03/15 04:36:05;;;;;;;7.95;4.63;;;;;;;;;;5096736;28;20115;-83
2022/03/15 04:38:33;;;;;;;6.28;3.90;;;;;;;;;;5101939;28;20079;-83
2022/03/15 04:41:06;;;;;;;8.05;4.00;;;;;;;;;;5097696;28;20467;-83
2022/03/15 04:43:34;;;;;;;10.80;4.45;;;;;;;;;;5100403;28;20096;-83
2022/03/15 04:46:07;;;;;;;7.60;3.88;;;;;;;;;;5099789;28;20556;-83
2022/03/15 04:48:35;;;;;;;8.45;4.40;;;;;;;;;;5102035;28;20047;-83
2022/03/15 04:51:08;;;;;;;12.73;4.18;;;;;;;;;;5098518;28;20853;-84
2022/03/15 04:53:37;;;;;;;7.88;4.53;;;;;;;;;;5100491;28;20035;-83
2022/03/15 04:56:06;;;;;;;9.18;4.03;;;;;;;;;;5098923;28;20068;-83
2022/03/15 04:58:35;;;;;;;7.25;4.18;;;;;;;;;;5094092;28;20076;-83
2022/03/15 05:01:07;;;;;;;8.75;4.10;;;;;;;;;;5095330;28;20051;-83
2022/03/15 05:03:36;;;;;;;8.65;4.65;;;;;;;;;;5092296;28;20430;-83
2022/03/15 05:06:07;;;;;;;6.60;3.50;;;;;;;;;;5093268;28;20075;-83
2022/03/15 05:08:36;;;;;;;12.23;4.57;;;;;;;;;;5094903;28;20108;-84
2022/03/15 05:11:06;;;;;;;9.90;4.45;;;;;;;;;;5098842;28;20540;-83
2022/03/15 05:13:35;;;;;;;10.65;4.22;;;;;;;;;;5104342;28;20122;-83
2022/03/15 05:16:12;;;;;;;7.97;4.20;;;;;;;;;;5086552;28;20134;-83
2022/03/15 05:18:41;;;;;;;9.15;4.15;;;;;;;;;;5105058;28;20089;-84
2022/03/15 05:21:09;;;;;;;10.43;4.88;;;;;;;;;;5102039;28;20043;-83
2022/03/15 05:23:37;;;;;;;14.45;4.85;;;;;;;;;;5111238;28;20097;-82
2022/03/15 05:26:06;;;;;;;7.82;3.83;;;;;;;;;;5106041;28;20363;-83
2022/03/15 05:28:34;;;;;;;8.52;4.03;;;;;;;;;;5097859;28;20479;-83
2022/03/15 05:31:05;;;;;;;11.20;4.43;;;;;;;;;;5106429;28;20589;-82
2022/03/15 05:33:35;;;;;;;11.40;4.10;;;;;;;;;;5103343;28;20048;-82
2022/03/15 05:36:08;;;;;;;8.10;4.07;;;;;;;;;;5100831;28;20048;-83
2022/03/15 05:38:37;;;;;;;8.32;4.65;;;;;;;;;;5101523;28;20103;-82
2022/03/15 05:41:07;;;;;;;9.32;4.68;;;;;;;;;;5104153;28;20048;-83
2022/03/15 05:43:52;;;;;;;9.52;4.55;;;;;;;;;;5106807;28;20044;-82
2022/03/15 05:46:21;;;;;;;17.48;4.68;;;;;;;;;;5107279;28;20072;-82
2022/03/15 05:48:51;;;;;;;11.70;4.85;;;;;;;;;;5109235;28;20067;-83
2022/03/15 05:51:19;;;;;;;13.77;4.88;;;;;;;;;;5117409;28;20399;-83
2022/03/15 05:53:47;;;;;;;8.80;4.32;;;;;;;;;;5104235;28;20052;-82
2022/03/15 05:56:15;;;;;;;11.65;4.70;;;;;;;;;;5120874;28;20103;-83
2022/03/15 05:58:46;;;;;;;8.27;5.10;;;;;;;;;;5100414;28;20043;-83
2022/03/15 06:01:15;;;;;;;14.73;4.28;;;;;;;;;;5107683;28;20456;-84
2022/03/15 06:03:43;;;;;;;11.45;5.60;;;;;;;;;;5105179;28;20048;-87
2022/03/15 06:06:13;;;;;;;10.35;5.00;;;;;;;;;;5102847;28;20094;-85
2022/03/15 06:08:41;;;;;;;11.07;4.60;;;;;;;;;;5106602;28;20052;-83
2022/03/15 06:11:11;;;;;;;9.45;4.95;;;;;;;;;;5100078;28;20047;-84
2022/03/15 06:13:41;;;;;;;13.43;5.25;;;;;;;;;;5099599;28;20066;-84
2022/03/15 06:16:09;;;;;;;13.20;5.13;;;;;;;;;;5097737;28;20574;-83
2022/03/15 06:18:39;;;;;;;10.32;5.15;;;;;;;;;;5106867;28;20060;-84
2022/03/15 06:21:07;;;;;;;12.43;5.28;;;;;;;;;;5101457;28;20127;-84
2022/03/15 06:23:37;;;;;;;13.60;5.30;;;;;;;;;;5105870;28;20047;-83
2022/03/15 06:26:25;;;;;;;14.68;5.43;;;;;;;;;;5102167;28;20048;-83
2022/03/15 06:28:54;;;;;;;16.00;4.97;;;;;;;;;;5097495;28;20063;-83
2022/03/15 06:31:22;;;;;;;11.27;5.10;;;;;;;;;;5098123;28;20043;-85
2022/03/15 06:33:53;;;;;;;14.40;4.70;;;;;;;;;;5100165;28;20051;-85
2022/03/15 06:36:21;;;;;;;9.93;5.05;;;;;;;;;;5105916;28;20106;-85
2022/03/15 06:38:52;;;;;;;13.00;6.28;;;;;;;;;;5105880;28;20091;-84
2022/03/15 06:41:20;;;;;;;14.07;6.32;;;;;;;;;;5103491;28;20447;-85
2022/03/15 06:43:48;;;;;;;11.88;5.70;;;;;;;;;;5094065;28;20487;-85
2022/03/15 06:46:17;;;;;;;14.00;5.93;;;;;;;;;;5111386;27;20090;-84
2022/03/15 06:48:45;;;;;;;14.43;6.22;;;;;;;;;;5104744;28;20058;-85
2022/03/15 06:51:14;;;;;;;14.00;6.32;;;;;;;;;;5099529;28;20052;-85
2022/03/15 06:53:42;;;;;;;19.50;6.22;;;;;;;;;;5093215;28;20104;-85
2022/03/15 06:56:13;;;;;;;18.45;7.35;;;;;;;;;;5100210;28;20441;-85
2022/03/15 06:58:43;;;;;;;13.20;6.63;;;;;;;;;;5106692;28;20138;-85
2022/03/15 07:01:12;;;;;;;13.98;6.55;;;;;;;;;;5103958;28;20099;-84
2022/03/15 07:03:41;;;;;;;15.52;6.65;;;;;;;;;;5097165;28;20051;-85
2022/03/15 07:06:10;;;;;;;16.45;6.20;;;;;;;;;;5094521;28;20111;-85
2022/03/15 07:08:38;;;;;;;15.32;6.97;;;;;;;;;;5099937;28;20525;-84
2022/03/15 07:11:07;;;;;;;18.35;6.40;;;;;;;;;;5106947;28;20508;-85
2022/03/15 07:13:37;;;;;;;17.73;7.07;;;;;;;;;;5093234;28;20452;-85
2022/03/15 07:16:08;;;;;;;18.60;7.97;;;;;;;;;;5096138;28;20104;-84
2022/03/15 07:18:37;;;;;;;15.48;7.97;;;;;;;;;;5097305;28;20054;-84
2022/03/15 07:21:05;;;;;;;12.55;6.60;;;;;;;;;;5095178;28;20134;-84
2022/03/15 07:23:34;;;;;;;15.38;7.97;;;;;;;;;;5100706;28;20086;-85
2022/03/15 07:26:04;;;;;;;19.88;8.43;;;;;;;;;;5105060;28;20155;-84
2022/03/15 07:28:33;;;;;;;15.35;7.95;;;;;;;;;;5097905;28;20431;-84
2022/03/15 07:31:05;;;;;;;19.15;8.23;;;;;;;;;;5102995;28;20082;-84
2022/03/15 07:33:33;;;;;;;13.05;7.63;;;;;;;;;;5100271;28;20066;-85
2022/03/15 07:36:05;;;;;;;15.82;8.15;;;;;;;;;;5103004;28;20052;-85
2022/03/15 07:38:34;;;;;;;17.15;8.15;;;;;;;;;;5105807;28;20533;-84
2022/03/15 07:41:05;;;;;;;14.45;7.35;;;;;;;;;;5101338;28;20135;-85
2022/03/15 07:43:33;;;;;;;16.67;7.80;;;;;;;;;;5106516;28;20552;-85
2022/03/15 07:46:07;;;;;;;22.63;8.23;;;;;;;;;;5097719;28;20072;-85
2022/03/15 07:48:36;;;;;;;19.50;8.15;;;;;;;;;;5111925;28;20055;-83
2022/03/15 07:51:07;;;;;;;15.13;7.95;;;;;;;;;;5106255;28;20040;-83
2022/03/15 07:53:35;;;;;;;17.08;6.93;;;;;;;;;;5099759;28;20143;-86
2022/03/15 07:56:07;;;;;;;14.45;6.68;;;;;;;;;;5105330;28;20044;-84
2022/03/15 07:58:36;;;;;;;15.52;7.30;;;;;;;;;;5100722;28;20403;-87
2022/03/15 08:01:09;;;;;;;19.88;6.47;;;;;;;;;;5097423;28;20048;-85
2022/03/15 08:03:38;;;;;;;11.70;6.78;;;;;;;;;;5110558;28;20047;-85
2022/03/15 08:06:10;;;;;;;20.25;7.07;;;;;;;;;;5101093;28;20056;-86
2022/03/15 08:08:49;;;;;;;15.70;6.88;;;;;;;;;;5124676;28;20133;-84
2022/03/15 08:11:18;;;;;;;17.05;6.70;;;;;;;;;;5109151;28;20036;-82
2022/03/15 08:13:47;;;;;;;14.68;6.00;;;;;;;;;;5099959;28;20050;-83
2022/03/15 08:16:17;;;;;;;12.90;5.53;;;;;;;;;;5087573;28;20043;-83
2022/03/15 08:18:46;;;;;;;14.95;6.65;;;;;;;;;;5116384;28;20047;-83
2022/03/15 08:21:18;;;;;;;11.05;5.68;;;;;;;;;;5108252;27;20043;-83
2022/03/15 08:23:47;;;;;;;9.27;4.57;;;;;;;;;;5097947;28;20556;-83
2022/03/15 08:26:17;;;;;;;9.02;5.13;;;;;;;;;;5110303;28;20051;-83
2022/03/15 08:28:48;;;;;;;11.63;5.40;;;;;;;;;;5094446;28;20063;-83
2022/03/15 08:31:18;;;;;;;11.60;5.57;;;;;;;;;;5098079;28;20044;-83
2022/03/15 08:33:50;;;;;;;8.82;5.43;;;;;;;;;;5094610;28;20545;-85
2022/03/15 08:36:19;;;;;;;10.63;5.90;;;;;;;;;;5103185;28;20082;-83
2022/03/15 08:38:48;;;;;;;12.15;4.88;;;;;;;;;;5103487;28;20052;-83
2022/03/15 08:41:17;;;;;;;9.50;5.13;;;;;;;;;;5107495;28;20046;-83
2022/03/15 08:43:46;;;;;;;13.20;5.88;;;;;;;;;;5097148;28;20457;-82
2022/03/15 08:46:17;;;;;;;14.63;5.45;;;;;;;;;;5106912;28;20056;-82
2022/03/15 08:48:49;;;;;;;11.15;5.45;;;;;;;;;;5082722;28;20111;-83
2022/03/15 08:51:17;;;;;;;12.13;5.68;;;;;;;;;;5074435;28;20052;-82
2022/03/15 08:53:46;;;;;;;10.65;5.55;;;;;;;;;;5094999;28;20040;-82
2022/03/15 08:56:15;;;;;;;8.70;4.78;;;;;;;;;;5096278;28;20082;-82
2022/03/15 08:58:44;;;;;;;12.00;5.55;;;;;;;;;;5095218;28;20048;-83
2022/03/15 09:01:12;;;;;;;14.48;5.70;;;;;;;;;;5099312;28;20483;-83
2022/03/15 09:04:02;;;;;;;8.88;5.15;;;;;;;;;;5083527;28;21259;-83
2022/03/15 09:06:32;;;;;;;9.18;5.15;;;;;;;;;;5100955;28;20119;-84
2022/03/15 09:09:01;;;;;;;11.07;5.15;;;;;;;;;;5096022;28;20050;-83
2022/03/15 09:11:31;;;;;;;10.68;5.30;;;;;;;;;;5103308;28;20056;-82
2022/03/15 09:14:00;;;;;;;11.15;4.90;;;;;;;;;;5103902;28;20055;-84
2022/03/15 09:16:29;;;;;;;16.50;5.32;;;;;;;;;;5095856;28;20065;-84
2022/03/15 09:18:59;;;;;;;11.40;4.82;;;;;;;;;;5090301;28;20506;-82
2022/03/15 09:21:29;;;;;;;12.25;5.47;;;;;;;;;;5103851;28;20048;-82
2022/03/15 09:23:57;;;;;;;8.52;4.63;;;;;;;;;;5096952;28;20142;-85
2022/03/15 09:26:28;;;;;;;10.45;4.70;;;;;;;;;;5110728;28;20398;-82
2022/03/15 09:28:57;;;;;;;10.82;4.53;;;;;;;;;;5104842;28;20064;-83
2022/03/15 09:31:25;;;;;;;9.18;4.38;;;;;;;;;;5101774;28;20048;-81
2022/03/15 09:33:54;;;;;;;8.43;4.78;;;;;;;;;;5104260;28;20048;-82
2022/03/15 09:36:23;;;;;;;10.88;5.30;;;;;;;;;;5100133;28;20642;-82
2022/03/15 09:38:53;;;;;;;8.98;4.60;;;;;;;;;;5104248;28;20040;-82
2022/03/15 09:41:23;;;;;;;8.85;4.28;;;;;;;;;;5109788;28;20451;-82
2022/03/15 09:43:53;;;;;;;8.73;4.97;;;;;;;;;;5110394;28;20097;-83
2022/03/15 09:46:23;;;;;;;7.97;4.90;;;;;;;;;;5078381;28;20079;-83
2022/03/15 09:49:12;;;;;;;8.23;4.80;;;;;;;;;;5103506;28;20048;-82
2022/03/15 09:51:40;;;;;;;9.65;4.43;;;;;;;;;;5098472;28;20066;-82
2022/03/15 09:54:12;;;;;;;7.32;4.13;;;;;;;;;;5102615;28;20379;-85
2022/03/15 09:56:41;;;;;;;13.93;4.95;;;;;;;;;;5100445;28;20101;-84
2022/03/15 09:59:14;;;;;;;11.23;4.72;;;;;;;;;;5108780;28;20047;-84
2022/03/15 10:01:44;;;;;;;9.63;4.57;;;;;;;;;;5107881;28;20397;-84
2022/03/15 10:04:12;;;;;;;9.95;4.38;;;;;;;;;;5103392;28;20054;-83
2022/03/15 10:06:41;;;;;;;10.55;5.22;;;;;;;;;;5099042;28;20142;-84
2022/03/15 10:09:12;;;;;;;10.68;4.95;;;;;;;;;;5098958;28;20051;-83
2022/03/15 10:11:41;;;;;;;9.13;4.28;;;;;;;;;;5104166;28;20056;-82
2022/03/15 10:14:10;;;;;;;10.98;4.85;;;;;;;;;;5100187;28;20570;-82
2022/03/15 10:16:40;;;;;;;8.13;4.55;;;;;;;;;;5106513;28;20491;-83
2022/03/15 10:19:10;;;;;;;8.95;4.60;;;;;;;;;;5105375;28;20479;-82
2022/03/15 10:21:41;;;;;;;8.20;4.38;;;;;;;;;;5099959;28;20075;-85
2022/03/15 10:24:10;;;;;;;8.05;4.05;;;;;;;;;;5107116;28;20114;-83
2022/03/15 10:26:41;;;;;;;8.65;4.00;;;;;;;;;;5091138;28;20059;-84
2022/03/15 10:29:13;;;;;;;6.80;3.55;;;;;;;;;;5095415;28;20055;-83
2022/03/15 10:31:42;;;;;;;7.50;4.22;;;;;;;;;;5100304;28;20661;-83
2022/03/15 10:34:13;;;;;;;5.90;3.22;;;;;;;;;;5081846;28;20515;-82
2022/03/15 10:36:42;;;;;;;7.95;3.90;;;;;;;;;;5101445;28;20052;-83
2022/03/15 10:39:12;;;;;;;8.25;3.90;;;;;;;;;;5086475;28;20048;-84
2022/03/15 10:41:46;;;;;;;12.18;4.00;;;;;;;;;;5064165;28;20049;-83
2022/03/15 10:44:18;;;;;;;8.85;3.65;;;;;;;;;;5061497;28;20052;-83
2022/03/15 10:46:58;;;;;;;6.38;3.60;;;;;;;;;;5058183;28;20057;-84
2022/03/15 10:49:28;;;;;;;8.15;4.00;;;;;;;;;;5054372;28;20053;-83
2022/03/15 10:51:57;;;;;;;6.88;3.92;;;;;;;;;;5054156;28;20110;-83
2022/03/15 10:54:27;;;;;;;10.32;3.95;;;;;;;;;;5056060;28;20102;-84
2022/03/15 10:56:59;;;;;;;7.38;4.10;;;;;;;;;;5068196;28;20040;-83
2022/03/15 10:59:28;;;;;;;7.22;4.10;;;;;;;;;;5066799;28;20515;-84
2022/03/15 11:02:01;;;;;;;9.68;3.95;;;;;;;;;;5068690;28;20080;-84
2022/03/15 11:04:30;;;;;;;7.35;3.83;;;;;;;;;;5078164;28;20045;-84
2022/03/15 11:07:00;;;;;;;6.32;3.55;;;;;;;;;;5100042;28;20063;-84
2022/03/15 11:09:32;;;;;;;7.10;3.33;;;;;;;;;;5096357;28;20100;-85
2022/03/15 11:12:06;;;;;;;7.88;3.60;;;;;;;;;;5110319;28;20150;-84
2022/03/15 11:14:39;;;;;;;5.85;3.10;;;;;;;;;;5105899;28;20047;-84
2022/03/15 11:17:09;;;;;;;5.03;3.35;;;;;;;;;;5101041;28;20169;-84
2022/03/15 11:19:40;;;;;;;6.45;3.40;;;;;;;;;;5108437;28;20138;-84
2022/03/15 11:22:12;;;;;;;8.23;3.72;;;;;;;;;;5104020;28;20066;-84
2022/03/15 11:24:45;;;;;;;7.38;3.58;;;;;;;;;;5099262;28;20109;-84
2022/03/15 11:27:17;;;;;;;6.68;3.45;;;;;;;;;;5093489;28;20094;-84
2022/03/15 11:29:46;;;;;;;8.35;4.13;;;;;;;;;;5082636;28;20048;-84
2022/03/15 11:32:17;;;;;;;5.35;3.00;;;;;;;;;;5099365;28;20074;-84
2022/03/15 11:34:46;;;;;;;7.38;3.67;;;;;;;;;;5096101;28;20048;-84
2022/03/15 11:37:14;;;;;;;6.55;3.38;;;;;;;;;;5102609;28;20084;-84
2022/03/15 11:39:43;;;;;;;6.57;3.45;;;;;;;;;;5112989;28;20051;-84
2022/03/15 11:42:12;;;;;;;7.50;4.20;;;;;;;;;;5103288;28;20240;-85
2022/03/15 11:44:48;;;;;;;8.45;3.60;;;;;;;;;;5093858;28;20056;-83
2022/03/15 11:47:20;;;;;;;7.00;3.53;;;;;;;;;;5097679;28;20054;-85
2022/03/15 11:49:54;;;;;;;6.95;3.50;;;;;;;;;;5093209;28;20044;-83
2022/03/15 11:52:29;;;;;;;7.20;3.78;;;;;;;;;;5102511;28;20402;-84
2022/03/15 11:55:02;;;;;;;8.10;3.80;;;;;;;;;;5110751;28;20047;-84
2022/03/15 11:57:34;;;;;;;5.93;3.30;;;;;;;;;;5097034;28;20055;-84
2022/03/15 12:00:05;;;;;;;7.32;3.67;;;;;;;;;;5097862;28;20051;-84
2022/03/15 12:02:38;;;;;;;6.75;3.60;;;;;;;;;;5095526;28;20113;-81
2022/03/15 12:05:17;;;;;;;6.32;3.20;;;;;;;;;;5104634;28;20464;-83
2022/03/15 12:07:47;;;;;;;8.10;3.53;;;;;;;;;;5101139;28;20097;-85
2022/03/15 12:10:27;;;;;;;5.82;3.25;;;;;;;;;;5108505;28;20052;-84
2022/03/15 12:13:15;;;;;;;7.97;2.67;;;;;;;;;;5082649;28;20264;-85
2022/03/15 12:15:48;;;;;;;6.85;2.97;;;;;;;;;;5103216;28;20047;-85
2022/03/15 12:18:33;;;;;;;5.35;2.63;;;;;;;;;;5101857;28;20048;-86
2022/03/15 12:21:09;;;;;;;6.35;2.92;;;;;;;;;;5061356;28;20044;-84
2022/03/15 12:23:42;;;;;;;5.25;2.60;;;;;;;;;;5099900;28;20047;-83
2022/03/15 12:26:18;;;;;;;4.78;2.30;;;;;;;;;;5103935;28;20054;-85
2022/03/15 12:28:56;;;;;;;6.18;2.67;;;;;;;;;;5100202;28;20547;-84
2022/03/15 12:31:35;;;;;;;5.68;1.98;;;;;;;;;;5099335;28;20086;-85
2022/03/15 12:34:04;;;;;;;4.10;2.30;;;;;;;;;;5087703;28;20055;-84
2022/03/15 12:36:47;;;;;;;6.45;3.08;;;;;;;;;;5088680;28;20052;-84
2022/03/15 12:39:18;;;;;;;7.82;2.38;;;;;;;;;;5100547;28;20632;-86
2022/03/15 12:41:47;;;;;;;6.55;2.58;;;;;;;;;;5098897;28;20044;-90
2022/03/15 12:44:16;;;;;;;6.65;3.10;;;;;;;;;;5101083;28;20040;-86
2022/03/15 12:46:47;;;;;;;6.20;2.28;;;;;;;;;;5101782;28;20054;-86
2022/03/15 12:49:18;;;;;;;4.15;2.20;;;;;;;;;;5098846;28;20040;-87
2022/03/15 12:51:49;;;;;;;6.25;2.60;;;;;;;;;;5105077;28;20082;-86
2022/03/15 12:54:17;;;;;;;6.13;2.58;;;;;;;;;;5112182;28;20054;-86
2022/03/15 12:56:49;;;;;;;7.38;2.30;;;;;;;;;;5101833;28;20052;-86
2022/03/15 12:59:18;;;;;;;5.40;2.45;;;;;;;;;;5103245;28;20077;-85
2022/03/15 13:01:49;;;;;;;6.82;2.83;;;;;;;;;;5081736;28;20048;-86
2022/03/15 13:04:28;;;;;;;5.40;2.35;;;;;;;;;;5103208;28;20093;-85
2022/03/15 13:07:08;;;;;;;8.70;2.25;;;;;;;;;;5103878;28;20040;-85
2022/03/15 13:09:37;;;;;;;4.80;2.47;;;;;;;;;;5102672;28;20047;-85
2022/03/15 13:12:17;;;;;;;5.00;2.10;;;;;;;;;;5102179;28;20075;-85
2022/03/15 13:14:48;;;;;;;3.95;2.30;;;;;;;;;;5099397;28;20044;-86
2022/03/15 13:17:20;;;;;;;4.38;2.10;;;;;;;;;;5095877;28;20076;-85
2022/03/15 13:19:50;;;;;;;8.77;2.88;;;;;;;;;;5102194;28;20040;-85
2022/03/15 13:22:28;;;;;;;6.13;2.80;;;;;;;;;;5102426;28;20047;-85
2022/03/15 13:25:04;;;;;;;5.68;2.53;;;;;;;;;;5104390;28;20044;-84
2022/03/15 13:27:40;;;;;;;5.13;2.85;;;;;;;;;;5122580;28;20040;-85
2022/03/15 13:30:09;;;;;;;5.53;2.22;;;;;;;;;;5119182;28;20407;-84
2022/03/15 13:32:39;;;;;;;3.88;2.15;;;;;;;;;;5114852;28;20058;-85
2022/03/15 13:35:09;;;;;;;7.15;2.92;;;;;;;;;;5111568;28;20138;-84
2022/03/15 13:37:38;;;;;;;5.57;2.35;;;;;;;;;;5113127;28;20048;-85
2022/03/15 13:40:07;;;;;;;7.25;2.50;;;;;;;;;;5110580;28;20078;-84
2022/03/15 13:42:39;;;;;;;6.35;2.78;;;;;;;;;;5110072;28;20051;-84
2022/03/15 13:45:09;;;;;;;5.38;2.63;;;;;;;;;;5109609;28;20066;-84
2022/03/15 13:47:40;;;;;;;7.80;2.55;;;;;;;;;;5115347;28;20102;-84
2022/03/15 13:50:10;;;;;;;6.82;3.13;;;;;;;;;;5109353;27;20071;-84
2022/03/15 13:52:39;;;;;;;7.20;3.17;;;;;;;;;;5098984;28;20044;-84
2022/03/15 13:55:10;;;;;;;6.32;2.78;;;;;;;;;;5107856;28;20070;-84
2022/03/15 13:57:40;;;;;;;5.18;2.97;;;;;;;;;;5100781;28;20082;-84
2022/03/15 14:00:17;;;;;;;3.88;2.42;;;;;;;;;;5112196;28;20044;-84
2022/03/15 14:02:50;;;;;;;6.35;2.40;;;;;;;;;;5108814;28;20043;-84
2022/03/15 14:05:21;;;;;;;9.05;3.28;;;;;;;;;;5109884;28;20099;-85
2022/03/15 14:08:02;;;;;;;6.80;2.40;;;;;;;;;;5081763;28;20419;-85
2022/03/15 14:10:31;;;;;;;3.75;2.17;;;;;;;;;;5098557;28;20072;-87
2022/03/15 14:12:59;;;;;;;8.43;2.83;;;;;;;;;;5087891;28;20051;-86
2022/03/15 14:15:29;;;;;;;5.30;2.72;;;;;;;;;;5087950;28;20052;-87
2022/03/15 14:18:01;;;;;;;6.88;2.83;;;;;;;;;;5085673;28;20055;-86
2022/03/15 14:20:41;;;;;;;13.07;3.97;;;;;;;;;;5093052;28;20040;-87
2022/03/15 14:23:14;;;;;;;13.20;4.30;;;;;;;;;;5091147;28;20139;-86
2022/03/15 14:25:45;;;;;;;10.48;3.75;;;;;;;;;;5096436;28;20044;-86
2022/03/15 14:28:17;;;;;;;14.30;4.22;;;;;;;;;;5082583;28;20503;-86
2022/03/15 14:30:49;;;;;;;9.18;3.20;;;;;;;;;;5076100;28;20048;-86
2022/03/15 14:33:20;;;;;;;8.68;3.47;;;;;;;;;;5079891;28;20045;-86
2022/03/15 14:35:51;;;;;;;9.25;3.58;;;;;;;;;;5085125;28;20316;-86
2022/03/15 14:38:21;;;;;;;9.80;3.67;;;;;;;;;;5088212;28;20048;-86
2022/03/15 14:40:54;;;;;;;8.60;3.53;;;;;;;;;;5092109;28;20059;-86
2022/03/15 14:43:24;;;;;;;9.55;3.40;;;;;;;;;;5085925;28;20044;-85
2022/03/15 14:45:54;;;;;;;6.97;3.45;;;;;;;;;;5092206;28;20045;-84
2022/03/15 14:48:29;;;;;;;9.10;3.65;;;;;;;;;;5092332;28;20104;-83
2022/03/15 14:51:01;;;;;;;11.52;4.22;;;;;;;;;;5085824;28;20059;-84
2022/03/15 14:53:37;;;;;;;14.82;3.67;;;;;;;;;;5079573;28;20080;-84
2022/03/15 14:56:07;;;;;;;12.85;3.88;;;;;;;;;;5080257;28;20078;-84
2022/03/15 14:58:37;;;;;;;10.98;4.72;;;;;;;;;;5092464;28;20047;-84